.
WxDataArchive / Data Records for 2010-02-21
2010-02-20 February 2010 2010-02-22

Data Records for Sunday, 21 February 2010

Time	Temp	Chill	HIndex	Humid	Dewpt	 Wind 	HiWind	WindDir	Rain 	Barom 
-----	----	-----	------	-----	-----	------	------	-------	-----	----- 
00:00	32.7	32.7	32.7	85	28.7	0	1	112	0.00	30.123 
00:05	32.7	32.7	32.7	85	28.7	0	1	112	0.00	30.123 
00:10	32.8	32.8	32.8	85	28.8	0	1	112	0.00	30.123 
00:15	32.8	32.8	32.8	85	28.8	0	0	---	0.00	30.119 
00:20	32.8	32.8	32.8	85	28.8	0	0	---	0.00	30.119 
00:25	32.7	32.7	32.7	85	28.7	0	2	112	0.00	30.119 
00:30	32.7	32.7	32.7	85	28.7	0	2	112	0.00	30.115 
00:35	32.5	32.5	32.5	86	28.8	0	0	---	0.00	30.115 
00:40	32.5	32.5	32.5	86	28.8	0	1	112	0.00	30.115 
00:45	32.4	32.4	32.4	86	28.7	0	0	---	0.00	30.114 
00:50	32.4	32.4	32.4	86	28.7	0	0	---	0.00	30.114 
00:55	32.2	32.2	32.2	86	28.5	0	0	---	0.00	30.114 
01:00	32.1	32.1	32.1	86	28.4	0	0	---	0.00	30.116 
01:05	32.1	32.1	32.1	86	28.4	0	0	---	0.00	30.116 
01:10	31.9	31.9	31.9	86	28.2	0	0	---	0.00	30.116 
01:15	31.9	31.9	31.9	87	28.5	0	0	---	0.00	30.115 
01:20	31.8	31.8	31.8	87	28.4	0	0	---	0.00	30.115 
01:25	31.8	31.8	31.8	87	28.4	0	0	---	0.00	30.115 
01:30	31.8	31.8	31.8	88	28.7	0	0	---	0.00	30.114 
01:35	31.6	31.6	31.6	88	28.5	0	0	---	0.00	30.114 
01:40	31.6	31.6	31.6	88	28.5	0	0	---	0.00	30.114 
01:45	31.6	31.6	31.6	88	28.5	0	1	112	0.00	30.114 
01:50	31.6	31.6	31.6	88	28.5	0	2	112	0.00	30.114 
01:55	31.6	31.6	31.6	88	28.5	0	2	112	0.00	30.114 
02:00	31.6	31.6	31.6	88	28.5	0	2	112	0.00	30.115 
02:05	31.6	31.6	31.6	88	28.5	0	0	---	0.00	30.115 
02:10	31.6	31.6	31.6	88	28.5	0	1	112	0.00	30.115 
02:15	31.5	31.5	31.5	88	28.4	0	2	112	0.00	30.117 
02:20	31.5	31.5	31.5	88	28.4	0	1	112	0.00	30.117 
02:25	31.5	31.5	31.5	89	28.6	0	1	112	0.00	30.117 
02:30	31.3	31.3	31.3	89	28.4	0	1	112	0.00	30.119 
02:35	31.3	31.3	31.3	88	28.2	0	1	112	0.00	30.119 
02:40	31.3	31.3	31.3	88	28.2	0	0	---	0.00	30.119 
02:45	31.2	31.2	31.2	88	28.1	0	0	---	0.00	30.121 
02:50	31.2	31.2	31.2	88	28.1	0	0	---	0.00	30.121 
02:55	31.0	31.0	31.0	88	27.9	0	0	---	0.00	30.121 
03:00	31.0	31.0	31.0	88	27.9	0	0	---	0.00	30.118 
03:05	30.9	30.9	30.9	88	27.8	0	0	---	0.00	30.118 
03:10	30.9	30.9	30.9	88	27.8	0	0	---	0.00	30.118 
03:15	30.9	30.9	30.9	88	27.8	0	1	112	0.00	30.115 
03:20	30.9	30.9	30.9	88	27.8	0	0	---	0.00	30.115 
03:25	30.9	30.9	30.9	88	27.8	0	0	---	0.00	30.115 
03:30	30.9	30.9	30.9	88	27.8	0	0	---	0.00	30.115 
03:35	31.0	31.0	31.0	88	27.9	0	0	---	0.00	30.115 
03:40	31.0	31.0	31.0	88	27.9	0	1	112	0.00	30.115 
03:45	31.2	31.2	31.2	87	27.8	0	0	---	0.00	30.112 
03:50	31.2	31.2	31.2	87	27.8	0	1	112	0.00	30.112 
03:55	31.2	31.2	31.2	87	27.8	0	0	---	0.00	30.112 
04:00	31.2	31.2	31.2	87	27.8	0	0	---	0.00	30.114 
04:05	31.3	31.3	31.3	87	27.9	0	1	112	0.00	30.114 
04:10	31.3	31.3	31.3	87	27.9	0	0	---	0.00	30.114 
04:15	31.3	31.3	31.3	87	27.9	0	0	---	0.00	30.115 
04:20	31.3	31.3	31.3	87	27.9	0	1	112	0.00	30.115 
04:25	31.3	31.3	31.3	86	27.6	0	0	---	0.00	30.115 
04:30	31.5	31.5	31.5	86	27.8	0	1	112	0.00	30.115 
04:35	31.5	31.5	31.5	86	27.8	0	0	---	0.00	30.115 
04:40	31.5	31.5	31.5	86	27.8	0	0	---	0.00	30.115 
04:45	31.5	31.5	31.5	86	27.8	0	0	---	0.00	30.109 
04:50	31.5	31.5	31.5	86	27.8	0	0	---	0.00	30.109 
04:55	31.5	31.5	31.5	86	27.8	0	0	---	0.00	30.109 
05:00	31.5	31.5	31.5	85	27.5	0	0	---	0.00	30.110 
05:05	31.5	31.5	31.5	85	27.5	0	0	---	0.00	30.110 
05:10	31.5	31.5	31.5	85	27.5	0	0	---	0.00	30.110 
05:15	31.5	31.5	31.5	85	27.5	0	0	---	0.00	30.108 
05:20	31.5	31.5	31.5	85	27.5	0	0	---	0.00	30.108 
05:25	31.3	31.3	31.3	85	27.3	0	0	---	0.00	30.108 
05:30	31.3	31.3	31.3	86	27.6	0	0	---	0.00	30.111 
05:35	31.3	31.3	31.3	86	27.6	0	0	---	0.00	30.111 
05:40	31.3	31.3	31.3	86	27.6	0	0	---	0.00	30.111 
05:45	31.3	31.3	31.3	86	27.6	0	0	---	0.00	30.112 
05:50	31.3	31.3	31.3	86	27.6	0	0	---	0.00	30.112 
05:55	31.3	31.3	31.3	86	27.6	0	0	---	0.00	30.112 
06:00	31.2	31.2	31.2	86	27.5	0	0	---	0.00	30.106 
06:05	31.2	31.2	31.2	86	27.5	0	0	---	0.00	30.106 
06:10	31.2	31.2	31.2	86	27.5	0	0	---	0.00	30.106 
06:15	31.2	31.2	31.2	86	27.5	0	0	---	0.00	30.106 
06:20	31.2	31.2	31.2	86	27.5	0	0	---	0.00	30.106 
06:25	31.2	31.2	31.2	87	27.8	0	0	---	0.00	30.106 
06:30	31.2	31.2	31.2	87	27.8	0	0	---	0.00	30.103 
06:35	31.2	31.2	31.2	87	27.8	0	0	---	0.00	30.103 
06:40	31.2	31.2	31.2	87	27.8	0	0	---	0.00	30.103 
06:45	31.2	31.2	31.2	87	27.8	0	0	---	0.00	30.103 
06:50	31.2	31.2	31.2	87	27.8	0	0	---	0.00	30.103 
06:55	31.2	31.2	31.2	87	27.8	0	0	---	0.00	30.103 
07:00	31.2	31.2	31.2	87	27.8	0	0	---	0.00	30.101 
07:05	31.2	31.2	31.2	87	27.8	0	1	112	0.00	30.101 
07:10	31.2	31.2	31.2	87	27.8	0	1	112	0.00	30.101 
07:15	31.2	31.2	31.2	87	27.8	0	0	---	0.00	30.103 
07:20	31.2	31.2	31.2	86	27.5	0	0	---	0.00	30.103 
07:25	31.3	31.3	31.3	86	27.6	0	0	---	0.00	30.103 
07:30	31.3	31.3	31.3	86	27.6	0	0	---	0.00	30.104 
07:35	31.3	31.3	31.3	86	27.6	0	0	---	0.00	30.104 
07:40	31.3	31.3	31.3	86	27.6	0	0	---	0.00	30.104 
07:45	31.3	31.3	31.3	86	27.6	0	1	112	0.00	30.106 
07:50	31.3	31.3	31.3	86	27.6	0	2	112	0.00	30.106 
07:55	31.3	31.3	31.3	86	27.6	0	1	112	0.00	30.106 
08:00	31.5	31.5	31.5	86	27.8	0	1	112	0.00	30.104 
08:05	31.5	31.5	31.5	86	27.8	0	1	112	0.00	30.104 
08:10	31.5	31.5	31.5	85	27.5	1	3	112	0.00	30.104 
08:15	31.6	31.6	31.6	85	27.6	1	3	112	0.00	30.108 
08:20	31.6	31.6	31.6	85	27.6	1	2	112	0.00	30.108 
08:25	31.8	31.8	31.8	85	27.8	1	2	112	0.00	30.108 
08:30	31.8	31.8	31.8	85	27.8	0	2	112	0.00	30.117 
08:35	31.9	31.9	31.9	85	27.9	0	1	112	0.00	30.117 
08:40	31.9	31.9	31.9	84	27.6	0	2	112	0.00	30.117 
08:45	32.1	32.1	32.1	84	27.8	0	1	112	0.00	30.116 
08:50	32.2	32.2	32.2	84	27.9	0	1	112	0.00	30.116 
08:55	32.4	32.4	32.4	84	28.1	0	2	112	0.00	30.116 
09:00	32.5	32.5	32.5	83	27.9	1	2	112	0.00	30.115 
09:05	32.7	32.7	32.7	83	28.1	0	2	112	0.00	30.115 
09:10	32.7	32.7	32.7	82	27.8	1	3	112	0.00	30.115 
09:15	32.9	32.9	32.9	82	28.0	0	2	112	0.00	30.115 
09:20	33.1	33.1	33.1	81	27.9	0	2	112	0.00	30.115 
09:25	33.4	33.4	33.4	81	28.2	1	3	112	0.00	30.115 
09:30	33.5	33.5	33.5	80	28.0	1	3	112	0.00	30.108 
09:35	33.8	33.8	33.8	80	28.3	1	3	112	0.00	30.108 
09:40	34.1	34.1	34.1	79	28.3	1	3	112	0.00	30.108 
09:45	34.3	34.3	34.3	79	28.5	1	3	112	0.00	30.105 
09:50	34.4	34.4	34.4	78	28.3	1	3	112	0.00	30.105 
09:55	34.7	34.7	34.7	77	28.2	1	3	112	0.00	30.105 
10:00	34.9	34.9	34.9	76	28.1	2	4	112	0.00	30.100 
10:05	34.9	34.9	34.9	76	28.1	1	3	90	0.00	30.100 
10:10	34.9	34.9	34.9	76	28.1	2	4	90	0.00	30.100 
10:15	35.0	35.0	35.0	76	28.2	1	3	90	0.00	30.098 
10:20	35.3	35.3	35.3	76	28.5	1	2	90	0.00	30.098 
10:25	35.5	35.5	35.5	75	28.4	1	2	90	0.00	30.098 
10:30	35.6	35.6	35.6	73	27.8	1	3	90	0.00	30.097 
10:35	35.9	35.9	35.9	73	28.1	0	2	90	0.00	30.097 
10:40	36.3	36.3	36.3	73	28.5	1	3	90	0.00	30.097 
10:45	36.6	36.6	36.6	72	28.4	1	3	90	0.00	30.090 
10:50	36.8	36.8	36.8	71	28.3	1	3	90	0.00	30.090 
10:55	37.2	37.2	37.2	70	28.3	0	2	90	0.00	30.090 
11:00	37.6	37.6	37.6	69	28.4	0	2	90	0.00	30.087 
11:05	38.3	38.3	38.3	66	28.0	1	3	158	0.00	30.087 
11:10	38.3	38.3	38.3	65	27.6	2	3	112	0.00	30.087 
11:15	38.2	38.2	38.2	66	27.9	2	4	135	0.00	30.086 
11:20	38.2	38.2	38.2	65	27.5	1	3	112	0.00	30.086 
11:25	38.3	38.3	38.3	65	27.6	1	3	112	0.00	30.086 
11:30	38.3	38.3	38.3	65	27.6	1	3	112	0.00	30.091 
11:35	38.5	38.5	38.5	65	27.8	1	3	112	0.00	30.091 
11:40	38.5	38.5	38.5	65	27.8	2	4	112	0.00	30.091 
11:45	38.8	38.8	38.8	65	28.1	1	3	112	0.00	30.086 
11:50	38.9	38.9	38.9	65	28.2	1	3	112	0.00	30.086 
11:55	39.1	39.1	39.1	64	28.0	0	2	112	0.00	30.086 
12:00	39.2	39.2	39.2	64	28.1	1	3	112	0.00	30.088 
12:05	38.9	38.9	38.9	64	27.8	1	4	112	0.00	30.088 
12:10	38.9	38.9	38.9	65	28.2	1	3	112	0.00	30.088 
12:15	39.2	39.2	39.2	66	28.8	1	4	112	0.00	30.078 
12:20	39.3	39.3	39.3	66	28.9	2	5	112	0.00	30.078 
12:25	39.2	39.2	39.2	66	28.8	1	4	90	0.00	30.078 
12:30	39.2	39.2	39.2	65	28.4	2	4	112	0.00	30.077 
12:35	39.2	39.2	39.2	64	28.1	1	4	112	0.00	30.077 
12:40	39.1	39.1	39.1	64	28.0	2	5	112	0.00	30.077 
12:45	38.9	38.9	38.9	64	27.8	3	6	112	0.00	30.065 
12:50	38.9	38.9	38.9	66	28.5	2	4	112	0.00	30.065 
12:55	38.9	38.9	38.9	68	29.3	1	2	112	0.00	30.065 
13:00	38.9	38.9	38.9	68	29.3	2	4	112	0.00	30.062 
13:05	38.8	38.8	38.8	69	29.5	1	3	112	0.00	30.062 
13:10	38.8	38.8	38.8	69	29.5	2	5	112	0.00	30.062 
13:15	38.8	38.8	38.8	69	29.5	1	3	112	0.00	30.057 
13:20	38.8	38.8	38.8	70	29.9	0	2	112	0.00	30.057 
13:25	38.6	38.6	38.6	70	29.7	2	5	112	0.00	30.057 
13:30	38.6	38.6	38.6	70	29.7	1	3	112	0.00	30.050 
13:35	38.6	38.6	38.6	70	29.7	1	3	112	0.00	30.050 
13:40	38.5	38.5	38.5	71	29.9	1	6	112	0.00	30.050 
13:45	38.6	38.6	38.6	71	30.0	1	4	90	0.00	30.042 
13:50	38.6	38.6	38.6	70	29.7	1	5	112	0.00	30.042 
13:55	38.6	38.6	38.6	70	29.7	1	5	112	0.00	30.042 
14:00	38.5	38.5	38.5	70	29.6	1	4	112	0.00	30.038 
14:05	38.3	38.3	38.3	71	29.7	2	6	112	0.00	30.038 
14:10	38.2	38.2	38.2	71	29.6	2	6	90	0.00	30.038 
14:15	38.2	38.2	38.2	71	29.6	2	6	112	0.00	30.035 
14:20	38.0	38.0	38.0	71	29.4	1	4	90	0.00	30.035 
14:25	38.0	38.0	38.0	71	29.4	1	3	90	0.00	30.035 
14:30	38.2	38.2	38.2	71	29.6	1	3	90	0.00	30.030 
14:35	38.2	38.2	38.2	71	29.6	2	5	90	0.00	30.030 
14:40	38.0	38.0	38.0	71	29.4	2	4	112	0.00	30.030 
14:45	38.0	38.0	38.0	71	29.4	2	5	112	0.00	30.020 
14:50	38.2	38.2	38.2	71	29.6	1	3	112	0.00	30.020 
14:55	38.2	38.2	38.2	70	29.3	2	4	112	0.00	30.020 
15:00	38.2	38.2	38.2	71	29.6	1	3	112	0.00	30.014 
15:05	38.0	38.0	38.0	71	29.4	1	4	112	0.00	30.014 
15:10	38.0	38.0	38.0	72	29.8	1	3	112	0.00	30.014 
15:15	38.0	38.0	38.0	72	29.8	1	4	112	0.00	30.007 
15:20	38.2	38.2	38.2	72	30.0	1	4	112	0.00	30.007 
15:25	38.3	38.3	38.3	72	30.1	1	4	112	0.00	30.007 
15:30	38.3	38.3	38.3	72	30.1	1	3	112	0.00	30.003 
15:35	38.3	38.3	38.3	72	30.1	2	4	112	0.00	30.003 
15:40	38.3	38.3	38.3	72	30.1	1	5	112	0.00	30.003 
15:45	38.5	38.5	38.5	72	30.3	2	4	112	0.00	30.001 
15:50	38.3	38.3	38.3	72	30.1	2	4	90	0.00	30.001 
15:55	38.3	38.3	38.3	70	29.4	2	5	112	0.00	30.001 
16:00	38.2	38.2	38.2	70	29.3	3	7	90	0.00	29.994 
16:05	37.9	37.9	37.9	71	29.4	3	5	90	0.00	29.994 
16:10	37.6	37.6	37.6	72	29.4	2	5	90	0.00	29.994 
16:15	37.5	37.5	37.5	73	29.6	2	5	112	0.00	29.989 
16:20	37.2	37.2	37.2	73	29.4	3	6	112	0.00	29.989 
16:25	37.0	37.0	37.0	75	29.8	2	5	90	0.00	29.989 
16:30	36.6	36.6	36.6	76	29.8	3	7	90	0.00	29.988 
16:35	36.5	36.5	36.5	77	30.0	2	5	112	0.00	29.988 
16:40	36.3	36.3	36.3	79	30.4	1	4	112	0.00	29.988 
16:45	36.2	36.2	36.2	80	30.6	1	4	112	0.00	29.987 
16:50	36.2	36.2	36.2	81	30.9	1	4	112	0.00	29.987 
16:55	36.0	36.0	36.0	82	31.0	1	3	90	0.00	29.987 
17:00	35.8	35.8	35.8	83	31.2	2	5	112	0.00	29.981 
17:05	35.5	35.5	35.5	84	31.2	2	6	112	0.00	29.981 
17:10	35.3	35.3	35.3	84	31.0	2	6	112	0.00	29.981 
17:15	35.2	35.2	35.2	85	31.2	1	3	112	0.01	29.988 
17:20	35.0	35.0	35.0	85	31.0	1	4	112	0.00	29.988 
17:25	34.9	34.9	34.9	86	31.1	2	4	112	0.00	29.988 
17:30	34.9	34.9	34.9	86	31.1	1	4	68	0.00	29.986 
17:35	34.7	34.7	34.7	86	30.9	1	4	90	0.00	29.986 
17:40	34.7	34.7	34.7	87	31.2	1	4	90	0.00	29.986 
17:45	34.7	34.7	34.7	87	31.2	1	3	90	0.00	29.988 
17:50	34.6	34.6	34.6	87	31.1	1	4	90	0.00	29.988 
17:55	34.4	34.4	34.4	88	31.2	2	7	112	0.00	29.988 
18:00	34.3	34.3	34.3	88	31.1	3	7	90	0.00	29.984 
18:05	34.1	34.1	34.1	88	30.9	3	7	112	0.01	29.984 
18:10	34.1	34.1	34.1	88	30.9	2	6	112	0.00	29.984 
18:15	34.0	34.0	34.0	89	31.1	3	6	112	0.00	29.977 
18:20	33.8	33.8	33.8	89	30.9	3	10	112	0.00	29.977 
18:25	33.7	30.0	33.7	89	30.8	4	7	112	0.00	29.977 
18:30	33.7	33.7	33.7	90	31.1	2	6	90	0.00	29.978 
18:35	33.5	33.5	33.5	90	30.9	3	7	112	0.00	29.978 
18:40	33.5	33.5	33.5	90	30.9	3	6	112	0.00	29.978 
18:45	33.4	33.4	33.4	91	31.1	2	5	90	0.01	29.980 
18:50	33.2	33.2	33.2	91	30.9	2	5	112	0.00	29.980 
18:55	33.1	33.1	33.1	91	30.8	2	5	90	0.00	29.980 
19:00	33.1	33.1	33.1	92	31.0	2	5	112	0.00	29.977 
19:05	32.9	32.9	32.9	92	30.8	3	5	90	0.00	29.977 
19:10	32.9	32.9	32.9	92	30.8	3	6	112	0.00	29.977 
19:15	32.9	32.9	32.9	92	30.8	2	6	90	0.00	29.975 
19:20	32.8	32.8	32.8	93	31.0	2	5	90	0.00	29.975 
19:25	32.8	32.8	32.8	93	31.0	2	7	90	0.00	29.975 
19:30	32.8	32.8	32.8	93	31.0	2	6	112	0.00	29.969 
19:35	32.8	32.8	32.8	93	31.0	2	6	90	0.00	29.969 
19:40	32.8	32.8	32.8	93	31.0	3	7	112	0.00	29.969 
19:45	32.8	32.8	32.8	94	31.3	2	8	112	0.00	29.972 
19:50	32.8	32.8	32.8	94	31.3	3	7	112	0.00	29.972 
19:55	32.8	32.8	32.8	94	31.3	2	6	112	0.00	29.972 
20:00	32.8	32.8	32.8	94	31.3	2	6	90	0.00	29.972 
20:05	32.8	32.8	32.8	94	31.3	2	6	112	0.00	29.972 
20:10	32.8	32.8	32.8	94	31.3	2	5	90	0.00	29.972 
20:15	32.8	32.8	32.8	94	31.3	2	7	90	0.00	29.960 
20:20	32.8	32.8	32.8	94	31.3	2	5	90	0.00	29.960 
20:25	32.8	32.8	32.8	94	31.3	2	9	90	0.00	29.960 
20:30	32.8	32.8	32.8	94	31.3	2	6	90	0.01	29.953 
20:35	32.8	32.8	32.8	94	31.3	3	9	90	0.00	29.953 
20:40	32.8	32.8	32.8	95	31.5	2	5	90	0.00	29.953 
20:45	32.9	32.9	32.9	95	31.6	3	6	112	0.01	29.944 
20:50	32.9	32.9	32.9	95	31.6	3	6	90	0.00	29.944 
20:55	32.9	32.9	32.9	95	31.6	2	6	112	0.00	29.944 
21:00	32.9	32.9	32.9	95	31.6	3	7	90	0.01	29.941 
21:05	32.8	32.8	32.8	95	31.5	3	6	112	0.00	29.941 
21:10	32.8	32.8	32.8	95	31.5	3	7	90	0.00	29.941 
21:15	32.8	32.8	32.8	95	31.5	3	6	90	0.01	29.933 
21:20	32.8	32.8	32.8	95	31.5	3	7	112	0.00	29.933 
21:25	32.8	32.8	32.8	95	31.5	2	6	112	0.00	29.933 
21:30	32.8	32.8	32.8	95	31.5	3	13	112	0.01	29.925 
21:35	32.9	29.1	32.9	95	31.6	4	9	112	0.00	29.925 
21:40	32.9	29.1	32.9	95	31.6	4	13	112	0.00	29.925 
21:45	32.9	32.9	32.9	95	31.6	3	7	90	0.00	29.924 
21:50	32.9	32.9	32.9	95	31.6	3	7	112	0.01	29.924 
21:55	32.9	32.9	32.9	95	31.6	2	7	112	0.00	29.924 
22:00	32.9	32.9	32.9	95	31.6	3	7	112	0.00	29.923 
22:05	32.9	32.9	32.9	95	31.6	1	5	90	0.00	29.923 
22:10	32.9	32.9	32.9	95	31.6	1	5	90	0.01	29.923 
22:15	32.9	32.9	32.9	95	31.6	2	5	112	0.00	29.921 
22:20	32.9	32.9	32.9	95	31.6	1	4	112	0.01	29.921 
22:25	32.9	32.9	32.9	95	31.6	2	6	112	0.00	29.921 
22:30	32.9	32.9	32.9	95	31.6	3	7	112	0.01	29.913 
22:35	32.9	32.9	32.9	95	31.6	1	4	112	0.00	29.913 
22:40	32.9	32.9	32.9	95	31.6	2	5	112	0.01	29.913 
22:45	32.9	32.9	32.9	95	31.6	3	7	90	0.00	29.905 
22:50	32.9	32.9	32.9	95	31.6	2	6	45	0.00	29.905 
22:55	32.9	32.9	32.9	95	31.6	2	8	112	0.01	29.905 
23:00	32.9	32.9	32.9	95	31.6	2	5	112	0.00	29.904 
23:05	32.9	32.9	32.9	95	31.6	2	5	112	0.00	29.904 
23:10	32.9	32.9	32.9	95	31.6	3	7	112	0.01	29.904 
23:15	32.9	32.9	32.9	95	31.6	3	7	112	0.00	29.901 
23:20	32.8	32.8	32.8	95	31.5	2	6	112	0.00	29.901 
23:25	32.8	32.8	32.8	95	31.5	3	9	90	0.00	29.901 
23:30	32.8	32.8	32.8	95	31.5	3	7	90	0.00	29.893 
23:35	32.8	29.0	32.8	95	31.5	4	14	112	0.01	29.893 
23:40	32.7	32.7	32.7	95	31.4	3	7	112	0.00	29.893 
23:45	32.7	32.7	32.7	95	31.4	2	6	90	0.00	29.896 
23:50	32.7	32.7	32.7	95	31.4	3	11	68	0.00	29.896 
23:55	32.7	28.9	32.7	95	31.4	4	8	112	0.01	29.896 

CoCoRaHS
IN-AL-39
A2 Web Hosting
Creative Commons License
GoDaddy
search engine by freefind advanced

loaded 2018-11-20 07:25:31 • last modified 2010-11-18 10:43:29
Privacy PolicyDisclaimer
• wx.awcolley.com is powered by PmWiki v.2002016 •
• all content (unless otherwise noted) © 2018 A W Colley